Time,TemperatureF,DewpointF,PressureIn,WindDirection,WindDirectionDegrees,WindSpeedMPH,WindSpeedGustMPH,Humidity,HourlyPrecipIn,Conditions,Clouds,dailyrainin,SoftwareType,DateUTC
2013-03-19 07:38:00,48.9,38.5,28.64,NW,308,3.1,4.3,67,0.29,,,0.29,WSDL version 420,2013-03-19 11:38:00,
2013-03-19 07:40:00,48.8,37.8,28.64,NNE,23,4.8,5.6,61,0.29,,,0.29,WSDL version 420,2013-03-19 11:40:00,
2013-03-19 07:44:00,48.6,36.4,28.67,NW,311,2.6,10.1,62,0.29,,,0.29,WSDL version 420,2013-03-19 11:44:00,
2013-03-19 07:46:00,48.5,36.3,28.67,WSW,248,3.4,10.1,61,0.29,,,0.29,WSDL version 420,2013-03-19 11:46:00,
2013-03-19 07:48:00,48.2,35.2,28.67,North,360,4.7,10.1,57,0.29,,,0.29,WSDL version 420,2013-03-19 11:48:00,
2013-03-19 07:50:00,48.1,34.0,28.67,WNW,293,4.4,10.1,56,0.29,,,0.29,WSDL version 420,2013-03-19 11:50:00,
2013-03-19 07:56:00,47.7,33.1,28.67,WNW,293,2.1,8.7,58,0.29,,,0.29,WSDL version 420,2013-03-19 11:56:00,
2013-03-19 07:58:00,47.5,33.1,28.67,WSW,248,2.7,8.7,56,0.29,,,0.29,WSDL version 420,2013-03-19 11:58:00,
2013-03-19 08:02:00,47.3,32.5,28.67,NE,45,2.9,6.5,56,0.29,,,0.29,WSDL version 420,2013-03-19 12:02:00,
2013-03-19 08:04:00,47.2,32.2,28.67,NNE,23,2.9,6.5,54,0.29,,,0.29,WSDL version 420,2013-03-19 12:04:00,
2013-03-19 08:10:00,47.0,30.5,28.67,SW,225,4.5,6.5,50,0.29,,,0.29,WSDL version 420,2013-03-19 12:10:00,
2013-03-19 08:14:00,46.8,29.1,28.67,North,360,2.9,8.5,49,0.29,,,0.29,WSDL version 420,2013-03-19 12:14:00,
2013-03-19 08:16:00,46.7,29.0,28.67,NW,315,2.0,8.5,50,0.29,,,0.29,WSDL version 420,2013-03-19 12:16:00,
2013-03-19 08:22:00,46.4,28.4,28.67,North,6,2.1,8.5,50,0.29,,,0.29,WSDL version 420,2013-03-19 12:22:00,
2013-03-19 08:24:00,46.2,28.2,28.67,West,281,3.0,6.0,48,0.29,,,0.29,WSDL version 420,2013-03-19 12:24:00,
2013-03-19 08:30:00,46.0,25.6,28.67,SW,225,3.0,6.3,43,0.29,,,0.29,WSDL version 420,2013-03-19 12:30:00,
2013-03-19 08:36:00,45.5,24.2,28.67,WSW,242,4.0,8.1,42,0.29,,,0.29,WSDL version 420,2013-03-19 12:36:00,
2013-03-19 08:38:00,45.4,23.2,28.67,West,270,4.3,8.1,39,0.00,,,0.29,WSDL version 420,2013-03-19 12:38:00,
2013-03-19 08:40:00,45.4,22.6,28.67,NNW,332,3.3,8.1,40,0.00,,,0.29,WSDL version 420,2013-03-19 12:40:00,
2013-03-19 08:44:00,45.3,22.6,28.70,NNW,330,3.5,7.4,40,0.00,,,0.29,WSDL version 420,2013-03-19 12:44:00,
2013-03-19 08:46:00,45.2,22.3,28.70,NNE,23,4.7,8.9,39,0.00,,,0.29,WSDL version 420,2013-03-19 12:46:00,
2013-03-19 08:50:00,45.1,22.0,28.70,West,266,3.9,8.9,40,0.00,,,0.29,WSDL version 420,2013-03-19 12:50:00,
2013-03-19 08:54:00,45.3,21.8,28.70,WNW,300,3.5,8.9,39,0.00,,,0.29,WSDL version 420,2013-03-19 12:54:00,
2013-03-19 08:56:00,45.3,21.7,28.70,NW,304,4.2,8.7,38,0.00,,,0.29,WSDL version 420,2013-03-19 12:56:00,
2013-03-19 09:00:00,45.3,21.5,28.70,West,259,2.9,8.7,39,0.00,,,0.29,WSDL version 420,2013-03-19 13:00:00,
2013-03-19 09:02:00,45.3,21.7,28.70,NNE,17,4.8,8.7,39,0.00,,,0.29,WSDL version 420,2013-03-19 13:02:00,
2013-03-19 09:04:00,45.3,21.9,28.70,East,90,3.1,8.7,40,0.00,,,0.29,WSDL version 420,2013-03-19 13:04:00,
2013-03-19 09:08:00,45.4,21.6,28.70,WNW,293,4.5,7.6,38,0.00,,,0.29,WSDL version 420,2013-03-19 13:08:00,
2013-03-19 09:10:00,45.5,21.3,28.70,WNW,293,4.2,7.8,38,0.00,,,0.29,WSDL version 420,2013-03-19 13:10:00,
2013-03-19 09:14:00,45.7,21.6,28.70,West,270,3.7,9.6,38,0.00,,,0.29,WSDL version 420,2013-03-19 13:14:00,
2013-03-19 09:16:00,45.8,21.6,28.70,WNW,296,3.4,9.6,38,0.00,,,0.29,WSDL version 420,2013-03-19 13:16:00,
2013-03-19 09:20:00,45.9,21.7,28.70,North,6,3.6,9.6,38,0.00,,,0.29,WSDL version 420,2013-03-19 13:20:00,
2013-03-19 09:26:00,46.1,21.1,28.70,NNW,338,1.7,8.5,34,0.00,,,0.29,WSDL version 420,2013-03-19 13:26:00,
2013-03-19 10:57:00,50.1,19.9,28.73,NW,323,2.5,4.7,30,0.00,,,0.29,WSDL version 420,2013-03-19 14:57:00,
2013-03-19 10:59:00,50.2,20.0,28.73,NW,315,2.2,4.7,30,0.00,,,0.29,WSDL version 420,2013-03-19 14:59:00,
2013-03-19 11:03:00,50.6,20.8,28.73,NW,321,1.9,4.7,30,0.00,,,0.29,WSDL version 420,2013-03-19 15:03:00,
2013-03-19 11:05:00,50.7,20.9,28.73,WSW,239,2.8,4.7,31,0.00,,,0.29,WSDL version 420,2013-03-19 15:05:00,
2013-03-19 11:11:00,51.3,21.6,28.73,North,6,4.1,5.8,30,0.00,,,0.29,WSDL version 420,2013-03-19 15:11:00,
2013-03-19 11:13:00,51.2,20.9,28.73,North,360,4.4,6.0,30,0.00,,,0.29,WSDL version 420,2013-03-19 15:13:00,
2013-03-19 11:15:00,51.2,20.7,28.73,NE,56,2.8,6.0,30,0.00,,,0.29,WSDL version 420,2013-03-19 15:15:00,
2013-03-19 11:17:00,51.4,21.2,28.73,North,11,1.5,6.0,31,0.00,,,0.29,WSDL version 420,2013-03-19 15:17:00,
2013-03-19 11:21:00,51.6,21.7,28.73,NNE,18,2.2,6.0,30,0.00,,,0.29,WSDL version 420,2013-03-19 15:21:00,
2013-03-19 11:23:00,51.7,21.4,28.73,NE,50,3.4,4.3,30,0.00,,,0.29,WSDL version 420,2013-03-19 15:23:00,
2013-03-19 11:29:00,52.1,21.8,28.73,NE,34,4.6,5.8,29,0.00,,,0.29,WSDL version 420,2013-03-19 15:29:00,
2013-03-19 11:31:00,52.1,21.6,28.73,NW,315,1.6,5.8,30,0.00,,,0.29,WSDL version 420,2013-03-19 15:31:00,
2013-03-19 11:37:00,52.7,22.3,28.73,WNW,285,2.1,5.8,31,0.00,,,0.29,WSDL version 420,2013-03-19 15:37:00,
2013-03-19 11:39:00,53.0,23.1,28.73,SSW,195,1.4,2.9,31,0.00,,,0.29,WSDL version 420,2013-03-19 15:39:00,
2013-03-19 11:43:00,53.4,22.7,28.76,NE,34,3.1,3.8,29,0.00,,,0.29,WSDL version 420,2013-03-19 15:43:00,
2013-03-19 11:45:00,53.4,22.1,28.76,NNW,330,3.3,3.8,29,0.00,,,0.29,WSDL version 420,2013-03-19 15:45:00,
2013-03-19 11:49:00,53.3,21.8,28.76,NNE,28,5.4,6.3,28,0.00,,,0.29,WSDL version 420,2013-03-19 15:49:00,
2013-03-19 11:53:00,53.2,21.5,28.76,WNW,293,2.5,6.3,29,0.00,,,0.29,WSDL version 420,2013-03-19 15:53:00,
2013-03-19 11:55:00,53.5,21.7,28.76,NNE,23,2.0,6.3,29,0.00,,,0.29,WSDL version 420,2013-03-19 15:55:00,
2013-03-19 11:57:00,53.6,21.5,28.76,North,-999,-999.0,-999.0,28,0.00,,,0.29,WSDL version 420,2013-03-19 15:57:00,
2013-03-19 12:01:00,53.6,21.3,28.76,North,0,0.0,6.5,28,0.00,,,0.29,WSDL version 420,2013-03-19 16:01:00,
2013-03-19 12:03:00,54.0,22.0,28.76,South,191,3.2,6.5,29,0.00,,,0.29,WSDL version 420,2013-03-19 16:03:00,
2013-03-19 12:07:00,54.4,22.3,28.76,ENE,75,3.4,6.5,28,0.00,,,0.29,WSDL version 420,2013-03-19 16:07:00,
2013-03-19 12:09:00,54.5,22.5,28.76,ENE,60,2.8,5.6,29,0.00,,,0.29,WSDL version 420,2013-03-19 16:09:00,
2013-03-19 12:15:00,54.8,22.3,28.76,NNE,18,2.6,7.4,28,0.00,,,0.29,WSDL version 420,2013-03-19 16:15:00,
2013-03-19 12:17:00,55.0,22.5,28.76,SW,225,3.6,7.4,28,0.00,,,0.29,WSDL version 420,2013-03-19 16:17:00,
2013-03-19 12:19:00,55.2,22.4,28.76,SSW,207,3.3,7.4,27,0.00,,,0.29,WSDL version 420,2013-03-19 16:19:00,
2013-03-19 12:25:00,56.1,23.2,28.76,West,276,2.5,5.6,27,0.00,,,0.29,WSDL version 420,2013-03-19 16:25:00,
2013-03-19 12:29:00,56.4,22.8,28.76,South,180,2.7,4.3,27,0.00,,,0.29,WSDL version 420,2013-03-19 16:29:00,
2013-03-19 12:33:00,56.7,23.1,28.76,WSW,248,2.5,4.3,27,0.00,,,0.29,WSDL version 420,2013-03-19 16:33:00,
2013-03-19 12:35:00,56.8,23.0,28.76,NW,304,3.1,4.3,26,0.00,,,0.29,WSDL version 420,2013-03-19 16:35:00,
2013-03-19 12:37:00,56.9,23.1,28.76,SSW,203,2.5,4.3,27,0.00,,,0.29,WSDL version 420,2013-03-19 16:37:00,
2013-03-19 12:39:00,57.0,22.8,28.76,SW,225,3.4,3.6,26,0.00,,,0.29,WSDL version 420,2013-03-19 16:39:00,
2013-03-19 12:43:00,57.1,22.5,28.76,North,8,5.7,7.6,26,0.00,,,0.29,WSDL version 420,2013-03-19 16:43:00,
2013-03-19 12:45:00,56.9,22.4,28.76,North,360,2.5,7.6,26,0.00,,,0.29,WSDL version 420,2013-03-19 16:45:00,
2013-03-19 12:49:00,57.3,22.7,28.76,NNE,30,2.7,7.6,26,0.00,,,0.29,WSDL version 420,2013-03-19 16:49:00,
2013-03-19 12:51:00,57.5,22.9,28.76,NE,34,2.7,7.6,26,0.00,,,0.29,WSDL version 420,2013-03-19 16:51:00,
2013-03-19 12:53:00,57.7,22.9,28.76,NNE,23,3.6,6.5,25,0.00,,,0.29,WSDL version 420,2013-03-19 16:53:00,
2013-03-19 12:55:00,57.5,22.3,28.76,North,349,5.1,6.3,25,0.00,,,0.29,WSDL version 420,2013-03-19 16:55:00,
2013-03-19 12:59:00,57.3,21.8,28.76,North,6,3.4,10.3,25,0.00,,,0.29,WSDL version 420,2013-03-19 16:59:00,
2013-03-19 13:01:00,57.3,21.8,28.76,NW,323,3.9,10.3,25,0.00,,,0.29,WSDL version 420,2013-03-19 17:01:00,
2013-03-19 13:05:00,57.7,22.3,28.76,WNW,293,2.8,10.3,25,0.00,,,0.29,WSDL version 420,2013-03-19 17:05:00,
2013-03-19 13:13:00,58.0,22.4,28.76,West,270,3.2,7.6,25,0.00,,,0.29,WSDL version 420,2013-03-19 17:13:00,
2013-03-19 13:15:00,58.0,22.4,28.76,NW,326,2.5,7.6,25,0.00,,,0.29,WSDL version 420,2013-03-19 17:15:00,
2013-03-19 13:17:00,58.2,22.6,28.76,NNE,23,2.5,7.6,25,0.00,,,0.29,WSDL version 420,2013-03-19 17:17:00,
2013-03-19 13:23:00,58.7,23.0,28.76,North,0,0.0,4.0,25,0.00,,,0.29,WSDL version 420,2013-03-19 17:23:00,
2013-03-19 13:27:00,58.7,22.4,28.76,NNE,23,7.7,12.1,24,0.00,,,0.29,WSDL version 420,2013-03-19 17:27:00,
2013-03-19 13:33:00,58.6,22.7,28.76,NNE,30,6.0,12.1,25,0.00,,,0.29,WSDL version 420,2013-03-19 17:33:00,
2013-03-19 13:35:00,58.8,22.7,28.76,North,11,3.1,12.1,25,0.00,,,0.29,WSDL version 420,2013-03-19 17:35:00,
2013-03-19 13:39:00,59.5,23.1,28.76,NE,38,4.5,7.4,24,0.00,,,0.29,WSDL version 420,2013-03-19 17:39:00,
2013-03-19 13:41:00,59.8,23.1,28.76,West,270,2.7,7.4,24,0.00,,,0.29,WSDL version 420,2013-03-19 17:41:00,
2013-03-19 13:47:00,60.7,24.0,28.73,NW,304,4.5,7.4,24,0.00,,,0.29,WSDL version 420,2013-03-19 17:47:00,
2013-03-19 13:49:00,60.9,24.1,28.73,WSW,240,1.8,5.8,24,0.00,,,0.29,WSDL version 420,2013-03-19 17:49:00,
2013-03-19 13:53:00,61.7,24.6,28.73,North,-999,-999.0,-999.0,24,0.00,,,0.29,WSDL version 420,2013-03-19 17:53:00,
2013-03-19 13:59:00,61.6,24.5,28.73,NW,326,4.3,4.7,24,0.00,,,0.29,WSDL version 420,2013-03-19 17:59:00,
2013-03-19 14:01:00,61.6,24.4,28.73,NNE,23,4.6,5.8,24,0.00,,,0.29,WSDL version 420,2013-03-19 18:01:00,
2013-03-19 14:05:00,61.6,24.5,28.73,South,191,2.7,5.8,24,0.00,,,0.29,WSDL version 420,2013-03-19 18:05:00,
2013-03-19 14:11:00,62.8,25.5,28.73,West,278,2.1,4.0,24,0.00,,,0.29,WSDL version 420,2013-03-19 18:11:00,
2013-03-19 14:13:00,63.1,25.8,28.73,NW,315,1.6,3.8,24,0.00,,,0.29,WSDL version 420,2013-03-19 18:13:00,
2013-03-19 14:17:00,63.0,24.5,28.73,NNW,338,6.3,7.8,23,0.00,,,0.29,WSDL version 420,2013-03-19 18:17:00,
2013-03-19 14:21:00,63.2,24.8,28.73,NW,315,3.0,7.8,23,0.00,,,0.29,WSDL version 420,2013-03-19 18:21:00,
2013-03-19 14:23:00,63.3,24.9,28.73,North,11,4.3,7.8,23,0.00,,,0.29,WSDL version 420,2013-03-19 18:23:00,
2013-03-19 14:25:00,63.4,24.9,28.73,NE,34,2.7,6.5,23,0.00,,,0.29,WSDL version 420,2013-03-19 18:25:00,
2013-03-19 14:27:00,63.1,24.0,28.73,NNE,23,5.0,7.4,21,0.00,,,0.29,WSDL version 420,2013-03-19 18:27:00,
2013-03-19 14:31:00,62.9,23.2,28.73,North,11,2.6,7.4,23,0.00,,,0.29,WSDL version 420,2013-03-19 18:31:00,
2013-03-19 14:42:00,-999.0,-99.9,28.73,North,-999,-999.0,-999.0,-999,-99.99,,,-99.99,WSDL version 420,2013-03-19 18:42:00,
2013-03-19 14:50:00,-999.0,-99.9,28.73,North,-999,-999.0,-999.0,-999,-99.99,,,-99.99,WSDL version 420,2013-03-19 18:50:00,
2013-03-19 14:53:00,64.6,23.1,28.73,NNW,332,2.2,2.9,20,0.00,,,0.29,WSDL version 420,2013-03-19 18:53:00,
2013-03-19 14:57:00,64.6,21.7,28.73,North,349,5.1,6.0,18,0.00,,,0.29,WSDL version 420,2013-03-19 18:57:00,
2013-03-19 14:59:00,64.7,21.9,28.73,NE,45,2.0,6.0,20,0.00,,,0.29,WSDL version 420,2013-03-19 18:59:00,
2013-03-19 15:03:00,65.0,22.2,28.73,NE,45,4.0,6.0,20,0.00,,,0.29,WSDL version 420,2013-03-19 19:03:00,
2013-03-19 15:05:00,64.9,21.2,28.73,NW,315,6.9,6.9,18,0.00,,,0.29,WSDL version 420,2013-03-19 19:05:00,
2013-03-19 15:07:00,64.8,20.8,28.73,NE,56,2.7,4.3,18,0.00,,,0.29,WSDL version 420,2013-03-19 19:07:00,
2013-03-19 15:09:00,64.7,20.2,28.73,NNE,15,4.8,5.8,18,0.00,,,0.29,WSDL version 420,2013-03-19 19:09:00,
2013-03-19 15:15:00,64.2,19.8,28.73,NE,45,5.8,6.3,18,0.00,,,0.29,WSDL version 420,2013-03-19 19:15:00,
2013-03-19 15:17:00,64.2,19.8,28.73,NE,34,3.9,6.3,18,0.00,,,0.29,WSDL version 420,2013-03-19 19:17:00,
2013-03-19 15:21:00,64.4,20.0,28.73,SE,146,1.5,6.3,18,0.00,,,0.29,WSDL version 420,2013-03-19 19:21:00,
2013-03-19 15:23:00,64.7,20.2,28.73,North,353,3.1,5.8,18,0.00,,,0.29,WSDL version 420,2013-03-19 19:23:00,
2013-03-19 15:29:00,65.7,22.6,28.73,NW,315,1.1,5.4,18,0.00,,,0.29,WSDL version 420,2013-03-19 19:29:00,
2013-03-19 15:33:00,65.7,21.1,28.73,NW,326,7.4,8.1,18,0.00,,,0.29,WSDL version 420,2013-03-19 19:33:00,
2013-03-19 15:35:00,65.4,20.8,28.73,North,353,4.7,8.1,18,0.00,,,0.29,WSDL version 420,2013-03-19 19:35:00,
2013-03-19 15:37:00,65.1,20.6,28.73,NE,34,6.8,8.1,18,0.00,,,0.29,WSDL version 420,2013-03-19 19:37:00,
2013-03-19 15:43:00,64.9,20.4,28.73,NNW,332,3.0,6.7,18,0.00,,,0.29,WSDL version 420,2013-03-19 19:43:00,
2013-03-19 15:45:00,64.9,20.4,28.73,North,0,0.0,6.7,18,0.00,,,0.29,WSDL version 420,2013-03-19 19:45:00,
2013-03-19 15:47:00,64.9,20.4,28.73,NNE,23,2.9,5.6,18,0.00,,,0.29,WSDL version 420,2013-03-19 19:47:00,
2013-03-19 15:49:00,64.9,20.4,28.73,NE,45,4.9,5.8,18,0.00,,,0.29,WSDL version 420,2013-03-19 19:49:00,
2013-03-19 15:51:00,64.9,20.4,28.73,North,349,5.0,5.8,18,0.00,,,0.29,WSDL version 420,2013-03-19 19:51:00,
2013-03-19 15:57:00,64.8,20.4,28.73,North,360,4.9,8.5,18,0.00,,,0.29,WSDL version 420,2013-03-19 19:57:00,
2013-03-19 16:01:00,64.6,20.1,28.73,North,360,9.4,9.4,18,0.00,,,0.29,WSDL version 420,2013-03-19 20:01:00,
2013-03-19 16:03:00,64.4,20.0,28.73,North,360,8.5,8.7,18,0.00,,,0.29,WSDL version 420,2013-03-19 20:03:00,
2013-03-19 16:05:00,64.2,19.8,28.73,NNE,23,6.2,8.7,18,0.00,,,0.29,WSDL version 420,2013-03-19 20:05:00,
2013-03-19 16:07:00,64.1,19.8,28.73,North,8,5.8,8.7,18,0.00,,,0.29,WSDL version 420,2013-03-19 20:07:00,
2013-03-19 16:11:00,64.3,19.9,28.73,NNE,23,2.2,8.7,18,0.00,,,0.29,WSDL version 420,2013-03-19 20:11:00,
2013-03-19 16:15:00,64.4,20.0,28.73,NNE,23,6.2,8.1,18,0.00,,,0.29,WSDL version 420,2013-03-19 20:15:00,
2013-03-19 16:17:00,64.2,19.8,28.73,North,11,5.9,8.1,18,0.00,,,0.29,WSDL version 420,2013-03-19 20:17:00,
2013-03-19 16:19:00,64.1,19.7,28.73,NE,45,6.1,8.1,18,0.00,,,0.29,WSDL version 420,2013-03-19 20:19:00,
2013-03-19 16:25:00,64.3,19.9,28.73,NW,323,3.6,7.6,18,0.00,,,0.29,WSDL version 420,2013-03-19 20:25:00,
2013-03-19 16:29:00,64.8,20.4,28.76,NNE,23,4.3,6.0,18,0.00,,,0.29,WSDL version 420,2013-03-19 20:29:00,
2013-03-19 16:33:00,64.8,20.3,28.76,ENE,68,5.5,6.3,18,0.00,,,0.29,WSDL version 420,2013-03-19 20:33:00,
2013-03-19 16:35:00,64.8,20.3,28.76,NE,34,2.6,6.3,18,0.00,,,0.29,WSDL version 420,2013-03-19 20:35:00,
2013-03-19 16:39:00,64.7,20.3,28.76,NNE,23,6.3,7.8,18,0.00,,,0.29,WSDL version 420,2013-03-19 20:39:00,
2013-03-19 16:41:00,64.3,19.9,28.76,NE,39,6.6,9.6,18,0.00,,,0.29,WSDL version 420,2013-03-19 20:41:00,
2013-03-19 16:45:00,64.5,20.1,28.79,WSW,240,4.0,9.6,18,0.00,,,0.29,WSDL version 420,2013-03-19 20:45:00,
2013-03-19 16:47:00,64.6,20.1,28.79,NE,34,3.1,9.6,18,0.00,,,0.29,WSDL version 420,2013-03-19 20:47:00,
2013-03-19 16:53:00,64.5,20.1,28.79,NW,315,4.3,7.8,18,0.00,,,0.29,WSDL version 420,2013-03-19 20:53:00,
2013-03-19 16:55:00,64.3,19.9,28.79,NW,304,4.9,12.8,18,0.00,,,0.29,WSDL version 420,2013-03-19 20:55:00,
2013-03-19 16:59:00,63.4,17.8,28.82,ENE,68,4.2,12.8,18,0.00,,,0.29,WSDL version 420,2013-03-19 20:59:00,
2013-03-19 17:05:00,63.1,17.1,28.82,NE,45,5.8,7.2,16,0.00,,,0.29,WSDL version 420,2013-03-19 21:05:00,
2013-03-19 17:09:00,63.3,18.5,28.82,West,264,3.5,7.2,18,0.00,,,0.29,WSDL version 420,2013-03-19 21:09:00,
2013-03-19 17:13:00,63.3,17.2,28.82,NNW,338,6.1,7.2,16,0.00,,,0.29,WSDL version 420,2013-03-19 21:13:00,
2013-03-19 17:15:00,63.1,16.2,28.82,North,360,6.0,6.3,16,0.00,,,0.29,WSDL version 420,2013-03-19 21:15:00,
2013-03-19 17:21:00,62.6,15.8,28.82,North,0,0.0,11.0,16,0.00,,,0.29,WSDL version 420,2013-03-19 21:21:00,
2013-03-19 17:23:00,62.6,15.8,28.82,NNE,23,6.5,11.0,16,0.00,,,0.29,WSDL version 420,2013-03-19 21:23:00,
2013-03-19 17:29:00,62.4,15.6,28.82,NNE,23,6.2,12.5,16,0.00,,,0.29,WSDL version 420,2013-03-19 21:29:00,
2013-03-19 17:31:00,62.4,15.6,28.82,NNE,19,7.3,12.5,16,0.00,,,0.29,WSDL version 420,2013-03-19 21:31:00,
2013-03-19 17:37:00,62.4,15.6,28.82,WNW,293,5.1,8.7,16,0.00,,,0.29,WSDL version 420,2013-03-19 21:37:00,
2013-03-19 17:43:00,62.7,15.9,28.82,NNW,338,4.4,6.5,16,0.00,,,0.29,WSDL version 420,2013-03-19 21:43:00,
2013-03-19 17:49:00,63.2,16.3,28.82,NE,45,1.6,3.6,16,0.00,,,0.29,WSDL version 420,2013-03-19 21:49:00,
2013-03-19 17:51:00,63.3,16.4,28.82,NNE,15,3.1,4.9,16,0.00,,,0.29,WSDL version 420,2013-03-19 21:51:00,
2013-03-19 17:57:00,62.9,16.1,28.82,NNE,28,7.4,8.5,16,0.00,,,0.29,WSDL version 420,2013-03-19 21:57:00,
2013-03-19 17:59:00,62.8,15.9,28.82,North,360,7.4,8.5,16,0.00,,,0.29,WSDL version 420,2013-03-19 21:59:00,
2013-03-19 18:05:00,62.2,15.5,28.82,North,360,4.8,10.1,16,0.00,,,0.29,WSDL version 420,2013-03-19 22:05:00,
2013-03-19 18:07:00,62.2,15.4,28.82,NNE,18,5.9,10.1,16,0.00,,,0.29,WSDL version 420,2013-03-19 22:07:00,
2013-03-19 18:15:00,62.5,15.7,28.82,East,90,3.4,6.3,16,0.00,,,0.29,WSDL version 420,2013-03-19 22:15:00,
2013-03-19 18:17:00,62.5,15.7,28.82,NNE,15,6.9,12.3,16,0.00,,,0.29,WSDL version 420,2013-03-19 22:17:00,
2013-03-19 18:19:00,62.1,15.4,28.82,NE,34,5.7,12.3,16,0.00,,,0.29,WSDL version 420,2013-03-19 22:19:00,
2013-03-19 18:21:00,61.8,15.2,28.82,NNE,23,7.6,12.3,16,0.00,,,0.29,WSDL version 420,2013-03-19 22:21:00,
2013-03-19 18:25:00,61.4,14.8,28.82,North,8,4.0,12.3,16,0.00,,,0.29,WSDL version 420,2013-03-19 22:25:00,
2013-03-19 18:31:00,61.2,14.7,28.79,West,270,4.5,9.6,16,0.00,,,0.29,WSDL version 420,2013-03-19 22:31:00,
2013-03-19 18:33:00,61.3,14.7,28.79,NNE,14,4.3,8.7,16,0.00,,,0.29,WSDL version 420,2013-03-19 22:33:00,
2013-03-19 18:35:00,61.1,14.8,28.79,NE,34,6.7,8.7,17,0.00,,,0.29,WSDL version 420,2013-03-19 22:35:00,
2013-03-19 18:37:00,60.6,15.1,28.79,North,360,6.0,8.7,17,0.00,,,0.29,WSDL version 420,2013-03-19 22:37:00,
2013-03-19 18:39:00,60.2,15.2,28.79,NNE,17,6.8,8.7,17,0.00,,,0.29,WSDL version 420,2013-03-19 22:39:00,
2013-03-19 18:43:00,59.5,14.6,28.79,NNE,23,4.7,8.7,17,0.00,,,0.29,WSDL version 420,2013-03-19 22:43:00,
2013-03-19 18:45:00,59.3,14.5,28.79,North,8,5.2,8.7,17,0.00,,,0.29,WSDL version 420,2013-03-19 22:45:00,
2013-03-19 18:47:00,59.1,14.4,28.79,NW,311,3.8,8.7,17,0.00,,,0.29,WSDL version 420,2013-03-19 22:47:00,
2013-03-19 18:49:00,58.9,14.2,28.79,NNE,28,3.3,9.8,17,0.00,,,0.29,WSDL version 420,2013-03-19 22:49:00,
2013-03-19 18:51:00,58.7,14.0,28.79,NNW,330,6.6,12.8,17,0.00,,,0.29,WSDL version 420,2013-03-19 22:51:00,
2013-03-19 18:57:00,58.4,13.8,28.76,NNE,23,4.4,12.8,17,0.00,,,0.29,WSDL version 420,2013-03-19 22:57:00,
2013-03-19 18:59:00,58.3,13.7,28.76,NNW,343,4.4,12.8,17,0.00,,,0.29,WSDL version 420,2013-03-19 22:59:00,
2013-03-19 19:05:00,58.0,13.4,28.76,North,11,6.0,6.5,17,0.00,,,0.29,WSDL version 420,2013-03-19 23:05:00,
2013-03-19 19:11:00,57.6,13.1,28.76,WSW,255,2.8,6.5,17,0.00,,,0.29,WSDL version 420,2013-03-19 23:11:00,
2013-03-19 19:13:00,57.6,13.1,28.76,NNW,345,3.4,6.9,17,0.00,,,0.29,WSDL version 420,2013-03-19 23:13:00,
2013-03-19 19:17:00,57.4,13.0,28.76,North,11,3.0,8.7,17,0.00,,,0.29,WSDL version 420,2013-03-19 23:17:00,
2013-03-19 19:21:00,57.1,12.7,28.76,SSW,203,6.5,10.5,17,0.00,,,0.29,WSDL version 420,2013-03-19 23:21:00,
2013-03-19 19:23:00,57.1,12.7,28.76,NE,45,6.5,10.5,17,0.00,,,0.29,WSDL version 420,2013-03-19 23:23:00,
2013-03-19 19:29:00,56.9,12.5,28.76,ENE,62,4.8,6.5,17,0.00,,,0.29,WSDL version 420,2013-03-19 23:29:00,
2013-03-19 19:31:00,56.8,12.4,28.76,NNW,343,3.3,6.9,17,0.00,,,0.29,WSDL version 420,2013-03-19 23:31:00,
2013-03-19 19:35:00,56.6,12.3,28.76,NW,315,2.9,6.9,17,0.00,,,0.29,WSDL version 420,2013-03-19 23:35:00,
2013-03-19 19:37:00,56.5,12.2,28.76,NNE,30,2.0,6.9,17,0.00,,,0.29,WSDL version 420,2013-03-19 23:37:00,
2013-03-19 19:41:00,56.2,12.0,28.76,South,180,0.0,6.5,17,0.00,,,0.29,WSDL version 420,2013-03-19 23:41:00,
2013-03-19 19:43:00,56.1,11.9,28.76,NW,315,2.8,4.0,17,0.00,,,0.29,WSDL version 420,2013-03-19 23:43:00,
2013-03-19 19:47:00,55.9,11.8,28.76,NNE,27,4.3,11.0,17,0.00,,,0.29,WSDL version 420,2013-03-19 23:47:00,
2013-03-19 19:49:00,55.9,11.8,28.76,NE,38,5.4,11.0,17,0.00,,,0.29,WSDL version 420,2013-03-19 23:49:00,
2013-03-19 19:51:00,55.9,11.8,28.76,NE,45,3.8,11.0,17,0.00,,,0.29,WSDL version 420,2013-03-19 23:51:00,
2013-03-19 19:53:00,55.9,11.8,28.76,NNW,333,3.4,11.0,17,0.00,,,0.29,WSDL version 420,2013-03-19 23:53:00,
2013-03-19 19:55:00,55.9,11.8,28.76,NNW,345,4.5,11.0,17,0.00,,,0.29,WSDL version 420,2013-03-19 23:55:00,
2013-03-19 19:59:00,55.9,11.8,28.79,NNW,345,4.0,6.5,17,0.00,,,0.29,WSDL version 420,2013-03-19 23:59:00,
2013-03-19 20:01:00,55.9,11.7,28.79,North,360,4.0,6.5,17,0.00,,,0.29,WSDL version 420,2013-03-20 00:01:00,
2013-03-19 20:03:00,55.9,11.7,28.79,NNW,330,2.9,6.0,17,0.00,,,0.29,WSDL version 420,2013-03-20 00:03:00,
2013-03-19 20:09:00,55.7,11.6,28.79,NNE,23,7.4,13.2,17,0.00,,,0.29,WSDL version 420,2013-03-20 00:09:00,
2013-03-19 20:13:00,55.7,11.5,28.79,NE,45,3.8,13.2,17,0.00,,,0.29,WSDL version 420,2013-03-20 00:13:00,
2013-03-19 20:15:00,55.5,11.4,28.79,North,360,4.5,13.2,17,0.00,,,0.29,WSDL version 420,2013-03-20 00:15:00,
2013-03-19 20:21:00,55.3,12.0,28.79,North,11,3.6,6.3,18,0.00,,,0.29,WSDL version 420,2013-03-20 00:21:00,
2013-03-19 20:23:00,55.2,12.4,28.79,NE,34,4.9,5.8,18,0.00,,,0.29,WSDL version 420,2013-03-20 00:23:00,
2013-03-19 20:27:00,54.8,12.1,28.79,North,360,2.9,5.6,18,0.00,,,0.29,WSDL version 420,2013-03-20 00:27:00,
2013-03-19 20:29:00,54.6,11.9,28.79,North,360,2.5,5.6,18,0.00,,,0.29,WSDL version 420,2013-03-20 00:29:00,
2013-03-19 20:31:00,54.5,11.9,28.79,North,349,2.5,3.8,18,0.00,,,0.29,WSDL version 420,2013-03-20 00:31:00,
2013-03-19 20:33:00,54.5,11.9,28.79,WNW,298,1.6,3.8,18,0.00,,,0.29,WSDL version 420,2013-03-20 00:33:00,
2013-03-19 20:35:00,54.5,11.9,28.79,North,-999,-999.0,-999.0,18,0.00,,,0.29,WSDL version 420,2013-03-20 00:35:00,
2013-03-19 20:41:00,54.4,12.2,28.79,NNE,23,5.6,5.6,18,0.00,,,0.29,WSDL version 420,2013-03-20 00:41:00,
2013-03-19 20:45:00,54.4,11.8,28.79,NE,34,2.7,7.8,18,0.00,,,0.29,WSDL version 420,2013-03-20 00:45:00,
2013-03-19 20:49:00,54.2,11.6,28.79,SW,225,1.7,7.8,18,0.00,,,0.29,WSDL version 420,2013-03-20 00:49:00,
2013-03-19 20:51:00,54.1,11.5,28.79,SW,218,0.9,7.8,18,0.00,,,0.29,WSDL version 420,2013-03-20 00:51:00,
2013-03-19 20:55:00,53.9,11.4,28.79,SW,236,2.2,5.4,18,0.00,,,0.29,WSDL version 420,2013-03-20 00:55:00,
2013-03-19 21:01:00,53.6,11.1,28.79,NNW,332,2.6,6.3,18,0.00,,,0.29,WSDL version 420,2013-03-20 01:01:00,
2013-03-19 21:03:00,53.6,11.1,28.79,SW,225,1.3,6.3,18,0.00,,,0.29,WSDL version 420,2013-03-20 01:03:00,
2013-03-19 21:07:00,53.5,11.0,28.79,NW,309,2.9,6.3,18,0.00,,,0.29,WSDL version 420,2013-03-20 01:07:00,
2013-03-19 21:11:00,53.4,11.0,28.79,West,278,2.7,4.0,18,0.00,,,0.29,WSDL version 420,2013-03-20 01:11:00,
2013-03-19 21:13:00,53.3,10.9,28.79,NE,34,4.3,4.3,18,0.00,,,0.29,WSDL version 420,2013-03-20 01:13:00,
2013-03-19 21:15:00,53.2,10.8,28.79,North,8,2.5,4.0,18,0.00,,,0.29,WSDL version 420,2013-03-20 01:15:00,
2013-03-19 21:19:00,53.1,10.7,28.79,NW,304,3.1,3.4,18,0.00,,,0.29,WSDL version 420,2013-03-20 01:19:00,
2013-03-19 21:23:00,52.9,10.6,28.79,NNW,343,2.5,4.9,18,0.00,,,0.29,WSDL version 420,2013-03-20 01:23:00,
2013-03-19 21:25:00,52.8,10.5,28.79,NNW,332,3.8,4.9,18,0.00,,,0.29,WSDL version 420,2013-03-20 01:25:00,
2013-03-19 21:29:00,52.7,10.4,28.79,NE,45,3.4,5.4,18,0.00,,,0.29,WSDL version 420,2013-03-20 01:29:00,
2013-03-19 21:31:00,52.6,10.3,28.79,North,360,2.2,5.4,18,0.00,,,0.29,WSDL version 420,2013-03-20 01:31:00,
2013-03-19 21:35:00,52.4,10.2,28.79,NNW,334,3.1,5.4,18,0.00,,,0.29,WSDL version 420,2013-03-20 01:35:00,
2013-03-19 21:39:00,52.3,10.0,28.79,NE,35,3.5,6.5,18,0.00,,,0.29,WSDL version 420,2013-03-20 01:39:00,
2013-03-19 21:45:00,52.1,9.9,28.79,NNE,23,3.4,6.5,18,0.00,,,0.29,WSDL version 420,2013-03-20 01:45:00,
2013-03-19 21:49:00,52.0,9.8,28.79,NW,315,2.2,5.8,18,0.00,,,0.29,WSDL version 420,2013-03-20 01:49:00,
2013-03-19 21:53:00,51.8,9.7,28.79,North,11,4.0,6.3,18,0.00,,,0.29,WSDL version 420,2013-03-20 01:53:00,
2013-03-19 21:55:00,51.7,10.1,28.79,WNW,300,3.3,6.3,19,0.00,,,0.29,WSDL version 420,2013-03-20 01:55:00,
2013-03-19 21:59:00,51.4,10.5,28.82,NE,41,2.6,6.3,19,0.00,,,0.29,WSDL version 420,2013-03-20 01:59:00,
2013-03-19 22:03:00,51.1,10.3,28.82,NNE,15,2.2,4.0,19,0.00,,,0.29,WSDL version 420,2013-03-20 02:03:00,
2013-03-19 22:09:00,50.9,10.1,28.82,NNW,345,1.9,3.8,19,0.00,,,0.29,WSDL version 420,2013-03-20 02:09:00,
2013-03-19 22:15:00,50.7,9.9,28.82,NE,34,3.1,4.7,19,0.00,,,0.29,WSDL version 420,2013-03-20 02:15:00,
2013-03-19 22:21:00,50.4,9.7,28.82,NE,50,2.4,4.7,19,0.00,,,0.29,WSDL version 420,2013-03-20 02:21:00,
2013-03-19 22:23:00,50.4,9.7,28.82,North,349,2.3,4.7,19,0.00,,,0.29,WSDL version 420,2013-03-20 02:23:00,
2013-03-19 22:25:00,50.3,9.6,28.82,NW,315,3.0,4.3,19,0.00,,,0.29,WSDL version 420,2013-03-20 02:25:00,
2013-03-19 22:29:00,50.2,9.5,28.82,North,360,3.5,5.6,19,0.00,,,0.29,WSDL version 420,2013-03-20 02:29:00,
2013-03-19 22:33:00,50.2,9.5,28.82,NNE,17,2.6,5.6,19,0.00,,,0.29,WSDL version 420,2013-03-20 02:33:00,
2013-03-19 22:35:00,50.2,9.5,28.82,NNW,341,2.8,5.6,19,0.00,,,0.29,WSDL version 420,2013-03-20 02:35:00,
2013-03-19 22:41:00,49.9,9.3,28.82,North,8,1.7,4.9,19,0.00,,,0.29,WSDL version 420,2013-03-20 02:41:00,
2013-03-19 22:43:00,49.9,9.3,28.82,NNE,15,2.0,4.9,19,0.00,,,0.29,WSDL version 420,2013-03-20 02:43:00,
2013-03-19 22:45:00,49.8,9.2,28.82,North,8,2.3,3.8,19,0.00,,,0.29,WSDL version 420,2013-03-20 02:45:00,
2013-03-19 22:49:00,49.6,9.0,28.82,North,360,2.3,3.1,19,0.00,,,0.29,WSDL version 420,2013-03-20 02:49:00,
2013-03-19 22:51:00,49.5,9.0,28.82,WSW,248,0.6,3.1,19,0.00,,,0.29,WSDL version 420,2013-03-20 02:51:00,
2013-03-19 22:55:00,49.3,8.8,28.82,NNE,23,1.6,3.1,19,0.00,,,0.29,WSDL version 420,2013-03-20 02:55:00,
2013-03-19 22:59:00,49.1,8.6,28.79,WNW,293,0.0,1.6,19,0.00,,,0.29,WSDL version 420,2013-03-20 02:59:00,
2013-03-19 23:01:00,49.0,8.5,28.79,NE,45,0.0,1.6,19,0.00,,,0.29,WSDL version 420,2013-03-20 03:01:00,
2013-03-19 23:05:00,48.9,8.4,28.79,NNE,23,1.8,2.0,19,0.00,,,0.29,WSDL version 420,2013-03-20 03:05:00,
2013-03-19 23:07:00,48.8,8.4,28.79,NW,315,1.6,2.5,19,0.00,,,0.29,WSDL version 420,2013-03-20 03:07:00,
2013-03-19 23:09:00,48.7,8.3,28.79,North,360,2.0,2.5,19,0.00,,,0.29,WSDL version 420,2013-03-20 03:09:00,
2013-03-19 23:15:00,48.7,8.3,28.82,NNW,345,0.9,2.7,19,0.00,,,0.29,WSDL version 420,2013-03-20 03:15:00,
2013-03-19 23:17:00,48.7,8.3,28.82,WNW,300,0.0,2.9,19,0.00,,,0.29,WSDL version 420,2013-03-20 03:17:00,
2013-03-19 23:19:00,48.7,8.3,28.82,West,270,1.6,2.9,19,0.00,,,0.29,WSDL version 420,2013-03-20 03:19:00,
2013-03-19 23:23:00,48.7,8.2,28.82,NNE,23,0.0,2.9,19,0.00,,,0.29,WSDL version 420,2013-03-20 03:23:00,
2013-03-19 23:25:00,48.6,8.2,28.82,NW,304,1.1,2.9,19,0.00,,,0.29,WSDL version 420,2013-03-20 03:25:00,
2013-03-19 23:29:00,48.3,8.0,28.82,West,263,0.7,2.9,19,0.00,,,0.29,WSDL version 420,2013-03-20 03:29:00,
2013-03-19 23:35:00,48.0,7.7,28.82,West,281,2.0,2.9,19,0.00,,,0.29,WSDL version 420,2013-03-20 03:35:00,
2013-03-19 23:39:00,47.8,7.6,28.82,South,191,2.0,3.1,19,0.00,,,0.29,WSDL version 420,2013-03-20 03:39:00,
2013-03-19 23:41:00,47.8,7.6,28.82,SSE,158,1.6,3.1,19,0.00,,,0.29,WSDL version 420,2013-03-20 03:41:00,
2013-03-19 23:47:00,47.7,7.4,28.82,WSW,240,0.0,3.1,19,0.00,,,0.29,WSDL version 420,2013-03-20 03:47:00,
2013-03-19 23:49:00,47.6,7.3,28.82,SW,236,0.0,2.5,19,0.00,,,0.29,WSDL version 420,2013-03-20 03:49:00,
2013-03-19 23:55:00,47.4,7.2,28.82,SW,225,0.0,2.0,19,0.00,,,0.29,WSDL version 420,2013-03-20 03:55:00,
2013-03-19 23:57:00,47.3,7.1,28.82,SW,225,0.0,2.0,19,0.00,,,0.29,WSDL version 420,2013-03-20 03:57:00,
2013-03-19 23:59:00,47.3,7.1,28.82,SW,225,0.6,3.4,19,0.00,,,0.29,WSDL version 420,2013-03-20 03:59:00,